createdAt,value
2018-09-18T00:01:09.694Z,20.20
2018-09-18T00:03:37.935Z,20.20
2018-09-18T00:06:06.220Z,20.20
2018-09-18T00:08:34.502Z,20.20
2018-09-18T00:11:03.161Z,20.20
2018-09-18T00:13:31.468Z,20.20
2018-09-18T00:15:59.725Z,20.20
2018-09-18T00:18:28.189Z,20.20
2018-09-18T00:20:56.488Z,20.10
2018-09-18T00:23:24.707Z,20.10
2018-09-18T00:25:52.955Z,20.10
2018-09-18T00:28:21.190Z,20.10
2018-09-18T00:30:49.688Z,20.00
2018-09-18T00:33:18.179Z,20.00
2018-09-18T00:35:46.533Z,20.00
2018-09-18T00:38:14.763Z,20.00
2018-09-18T00:40:42.980Z,20.00
2018-09-18T00:43:11.326Z,19.90
2018-09-18T00:45:39.534Z,19.90
2018-09-18T00:48:08.148Z,19.90
2018-09-18T00:50:36.490Z,19.90
2018-09-18T00:53:04.735Z,19.90
2018-09-18T00:55:32.911Z,19.90
2018-09-18T00:58:01.226Z,19.90
2018-09-18T01:00:29.436Z,19.90
2018-09-18T01:02:57.776Z,19.90
2018-09-18T01:05:26.086Z,19.90
2018-09-18T01:07:54.694Z,19.90
2018-09-18T01:10:23.390Z,19.90
2018-09-18T01:12:51.763Z,19.90
2018-09-18T01:15:20.090Z,19.90
2018-09-18T01:17:49.665Z,19.90
2018-09-18T01:20:19.236Z,19.90
2018-09-18T01:22:47.650Z,19.90
2018-09-18T01:25:16.017Z,19.90
2018-09-18T01:27:51.001Z,19.80
2018-09-18T01:30:19.289Z,19.80
2018-09-18T01:32:47.679Z,19.80
2018-09-18T01:35:16.075Z,19.80
2018-09-18T01:37:44.311Z,19.80
2018-09-18T01:40:12.718Z,19.80
2018-09-18T01:42:40.954Z,19.80
2018-09-18T01:45:09.306Z,19.80
2018-09-18T01:47:37.548Z,19.80
2018-09-18T01:50:06.243Z,19.80
2018-09-18T01:52:34.643Z,19.80
2018-09-18T01:55:03.011Z,19.70
2018-09-18T01:57:31.269Z,19.70
2018-09-18T01:59:59.593Z,19.70
2018-09-18T02:02:27.894Z,19.70
2018-09-18T02:04:56.248Z,19.70
2018-09-18T02:07:24.445Z,19.70
2018-09-18T02:09:52.804Z,19.70
2018-09-18T02:12:21.180Z,19.70
2018-09-18T02:14:49.387Z,19.70
2018-09-18T02:17:17.749Z,19.60
2018-09-18T02:19:46.126Z,19.60
2018-09-18T02:22:14.411Z,19.60
2018-09-18T02:24:42.662Z,19.60
2018-09-18T02:27:10.888Z,19.60
2018-09-18T02:29:39.097Z,19.60
2018-09-18T02:32:07.378Z,19.60
2018-09-18T02:34:35.937Z,19.60
2018-09-18T02:37:04.190Z,19.60
2018-09-18T02:39:32.611Z,19.60
2018-09-18T02:42:00.850Z,19.60
2018-09-18T02:44:29.178Z,19.60
2018-09-18T02:46:57.504Z,19.60
2018-09-18T02:49:25.800Z,19.60
2018-09-18T02:51:54.193Z,19.60
2018-09-18T02:54:22.701Z,19.60
2018-09-18T02:56:50.989Z,19.60
2018-09-18T02:59:19.284Z,19.50
2018-09-18T03:01:47.701Z,19.50
2018-09-18T03:04:16.996Z,19.50
2018-09-18T03:06:45.420Z,19.50
2018-09-18T03:09:13.791Z,19.50
2018-09-18T03:11:42.167Z,19.50
2018-09-18T03:14:10.377Z,19.50
2018-09-18T03:16:38.688Z,19.50
2018-09-18T03:19:07.150Z,19.50
2018-09-18T03:21:35.953Z,19.50
2018-09-18T03:24:04.582Z,19.50
2018-09-18T03:26:32.993Z,19.50
2018-09-18T03:29:02.269Z,19.50
2018-09-18T03:31:30.647Z,19.50
2018-09-18T03:33:58.948Z,19.40
2018-09-18T03:36:27.513Z,19.40
2018-09-18T03:38:55.880Z,19.40
2018-09-18T03:41:24.934Z,19.40
2018-09-18T03:43:54.205Z,19.40
2018-09-18T03:46:22.437Z,19.40
2018-09-18T03:48:50.655Z,19.40
2018-09-18T03:51:18.874Z,19.40
2018-09-18T03:53:47.268Z,19.40
2018-09-18T03:56:15.621Z,19.40
2018-09-18T03:58:44.026Z,19.40
2018-09-18T04:01:12.307Z,19.40
2018-09-18T04:03:40.560Z,19.40
2018-09-18T04:06:08.892Z,19.30
2018-09-18T04:08:37.154Z,19.30
2018-09-18T04:11:05.620Z,19.30
2018-09-18T04:13:33.907Z,19.30
2018-09-18T04:16:02.281Z,19.30
2018-09-18T04:18:31.080Z,19.30
2018-09-18T04:20:59.510Z,19.30
2018-09-18T04:23:27.779Z,19.30
2018-09-18T04:25:56.024Z,19.30
2018-09-18T04:28:24.234Z,19.20
2018-09-18T04:30:52.505Z,19.20
2018-09-18T04:33:20.803Z,19.20
2018-09-18T04:35:49.211Z,19.20
2018-09-18T04:38:17.502Z,19.20
2018-09-18T04:40:45.783Z,19.20
2018-09-18T04:43:14.046Z,19.10
2018-09-18T04:45:42.306Z,19.10
2018-09-18T04:48:10.588Z,19.10
2018-09-18T04:50:39.297Z,19.10
2018-09-18T04:53:07.707Z,19.10
2018-09-18T04:55:36.244Z,19.10
2018-09-18T04:58:04.737Z,19.10
2018-09-18T05:00:33.144Z,19.10
2018-09-18T05:03:01.490Z,19.10
2018-09-18T05:05:29.895Z,19.10
2018-09-18T05:07:58.353Z,19.10
2018-09-18T05:10:26.761Z,19.10
2018-09-18T05:12:55.530Z,19.10
2018-09-18T05:15:23.821Z,19.20
2018-09-18T05:17:52.053Z,19.20
2018-09-18T05:20:20.406Z,19.20
2018-09-18T05:22:48.699Z,19.20
2018-09-18T05:25:16.936Z,19.30
2018-09-18T05:27:45.328Z,19.30
2018-09-18T05:30:13.760Z,19.30
2018-09-18T05:32:43.429Z,19.30
2018-09-18T05:35:11.777Z,19.40
2018-09-18T05:37:40.156Z,19.40
2018-09-18T05:40:08.581Z,19.40
2018-09-18T05:42:36.943Z,19.40
2018-09-18T05:45:05.745Z,19.50
2018-09-18T05:47:51.573Z,19.50
2018-09-18T05:50:19.912Z,19.50
2018-09-18T05:52:49.484Z,19.50
2018-09-18T05:55:18.198Z,19.60
2018-09-18T05:57:46.692Z,19.60
2018-09-18T06:00:15.363Z,19.60
2018-09-18T06:02:43.854Z,19.70
2018-09-18T06:05:12.217Z,19.70
2018-09-18T06:07:40.909Z,19.70
2018-09-18T06:10:09.239Z,19.70
2018-09-18T06:12:37.796Z,19.80
2018-09-18T06:15:06.359Z,19.80
2018-09-18T06:17:34.919Z,19.80
2018-09-18T06:20:03.486Z,19.90
2018-09-18T06:22:32.855Z,19.90
2018-09-18T06:25:01.373Z,19.90
2018-09-18T06:27:29.949Z,19.90
2018-09-18T06:29:58.712Z,20.00
2018-09-18T06:32:27.246Z,20.00
2018-09-18T06:34:55.872Z,20.10
2018-09-18T06:37:24.579Z,20.10
2018-09-18T06:39:52.868Z,20.10
2018-09-18T06:42:21.391Z,20.20
2018-09-18T06:44:50.107Z,20.20
2018-09-18T06:47:18.450Z,20.20
2018-09-18T06:49:47.217Z,20.20
2018-09-18T06:52:15.650Z,20.20
2018-09-18T06:54:44.017Z,20.30
2018-09-18T06:57:12.418Z,20.30
2018-09-18T06:59:40.854Z,20.20
2018-09-18T07:02:09.139Z,20.20
2018-09-18T07:04:37.477Z,20.30
2018-09-18T07:07:05.809Z,20.30
2018-09-18T07:09:34.227Z,20.40
2018-09-18T07:12:02.902Z,20.40
2018-09-18T07:14:31.454Z,20.40
2018-09-18T07:17:00.245Z,20.40
2018-09-18T07:19:28.488Z,20.40
2018-09-18T07:21:56.892Z,20.40
2018-09-18T07:24:25.354Z,20.40
2018-09-18T07:26:53.757Z,20.40
2018-09-18T07:29:22.353Z,20.40
2018-09-18T07:31:50.629Z,20.40
2018-09-18T07:34:19.193Z,20.50
2018-09-18T07:36:49.282Z,20.50
2018-09-18T07:39:18.888Z,20.50
2018-09-18T07:41:48.051Z,20.50
2018-09-18T07:44:16.449Z,20.60
2018-09-18T07:46:44.732Z,20.60
2018-09-18T07:49:14.400Z,20.70
2018-09-18T07:51:42.826Z,20.70
2018-09-18T07:54:12.681Z,20.80
2018-09-18T07:56:42.120Z,20.90
2018-09-18T07:59:11.591Z,20.90
2018-09-18T08:01:40.357Z,20.90
2018-09-18T08:04:10.369Z,21.00
2018-09-18T08:06:38.859Z,21.10
2018-09-18T08:09:11.190Z,21.10
2018-09-18T08:11:40.087Z,21.20
2018-09-18T08:14:08.659Z,21.20
2018-09-18T08:16:37.500Z,21.30
2018-09-18T08:19:06.275Z,21.30
2018-09-18T08:21:34.898Z,21.30
2018-09-18T08:24:03.387Z,21.30
2018-09-18T08:26:31.794Z,21.40
2018-09-18T08:29:01.099Z,21.40
2018-09-18T08:31:29.595Z,21.40
2018-09-18T08:33:57.862Z,21.40
2018-09-18T08:36:26.221Z,21.40
2018-09-18T08:38:54.824Z,21.50
2018-09-18T08:41:23.424Z,21.50
2018-09-18T08:43:52.120Z,21.50
2018-09-18T08:46:20.691Z,21.60
2018-09-18T08:48:55.101Z,21.60
2018-09-18T08:51:23.471Z,21.60
2018-09-18T08:53:51.844Z,21.60
2018-09-18T08:56:20.276Z,21.60
2018-09-18T08:58:48.843Z,21.70
2018-09-18T09:01:17.100Z,21.70
2018-09-18T09:03:45.491Z,21.70
2018-09-18T09:06:13.788Z,21.80
2018-09-18T09:08:42.288Z,21.80
2018-09-18T09:11:10.816Z,21.90
2018-09-18T09:13:39.460Z,22.00
2018-09-18T09:16:07.764Z,22.00
2018-09-18T09:18:37.894Z,22.10
2018-09-18T09:21:06.221Z,22.20
2018-09-18T09:23:34.454Z,22.20
2018-09-18T09:26:02.975Z,22.30
2018-09-18T09:28:31.276Z,22.30
2018-09-18T09:31:00.070Z,22.30
2018-09-18T09:33:29.191Z,22.30
2018-09-18T09:35:57.531Z,22.30
2018-09-18T09:38:25.819Z,22.30
2018-09-18T09:40:54.573Z,22.40
2018-09-18T09:43:23.000Z,22.40
2018-09-18T09:45:51.396Z,22.50
2018-09-18T09:50:54.386Z,22.50
2018-09-18T09:53:22.677Z,22.60
2018-09-18T09:55:54.510Z,22.60
2018-09-18T09:58:23.367Z,22.70
2018-09-18T10:00:57.244Z,22.70
2018-09-18T10:03:25.721Z,22.80
2018-09-18T10:05:54.069Z,22.80
2018-09-18T10:08:23.559Z,22.80
2018-09-18T10:10:51.990Z,22.90
2018-09-18T10:13:20.368Z,22.90
2018-09-18T10:15:49.059Z,22.90
2018-09-18T10:18:17.526Z,23.00
2018-09-18T10:20:45.924Z,23.00
2018-09-18T10:23:14.394Z,23.00
2018-09-18T10:25:42.808Z,23.10
2018-09-18T10:28:11.236Z,23.20
2018-09-18T10:30:39.652Z,23.30
2018-09-18T10:33:08.317Z,23.30
2018-09-18T10:35:36.683Z,23.30
2018-09-18T10:38:05.031Z,23.40
2018-09-18T10:40:33.364Z,23.40
2018-09-18T10:43:01.854Z,23.50
2018-09-18T10:45:30.518Z,23.50
2018-09-18T10:47:58.828Z,23.60
2018-09-18T10:50:27.102Z,23.60
2018-09-18T10:52:55.516Z,23.60
2018-09-18T10:55:23.956Z,23.60
2018-09-18T10:57:52.503Z,23.70
2018-09-18T11:00:20.778Z,23.80
2018-09-18T11:02:49.107Z,23.80
2018-09-18T11:05:17.388Z,23.90
2018-09-18T11:07:45.759Z,23.90
2018-09-18T11:10:14.165Z,24.00
2018-09-18T11:12:43.361Z,24.00
2018-09-18T11:15:11.665Z,24.10
2018-09-18T11:17:40.127Z,24.10
2018-09-18T11:20:08.221Z,24.10
2018-09-18T11:22:44.628Z,24.20
2018-09-18T11:25:13.124Z,24.20
2018-09-18T11:27:41.450Z,24.20
2018-09-18T11:30:09.836Z,24.20
2018-09-18T11:32:39.216Z,24.30
2018-09-18T11:35:07.828Z,24.30
2018-09-18T11:37:36.504Z,24.30
2018-09-18T11:40:05.944Z,24.30
2018-09-18T11:42:34.806Z,24.30
2018-09-18T11:45:03.132Z,24.30
2018-09-18T11:47:31.745Z,24.40
2018-09-18T11:50:00.144Z,24.40
2018-09-18T11:52:28.493Z,24.40
2018-09-18T11:54:57.134Z,24.40
2018-09-18T11:57:26.784Z,24.50
2018-09-18T11:59:55.151Z,24.70
2018-09-18T12:02:23.604Z,24.80
2018-09-18T12:04:51.998Z,24.90
2018-09-18T12:07:21.397Z,25.00
2018-09-18T12:09:49.932Z,25.00
2018-09-18T12:12:18.271Z,25.10
2018-09-18T12:14:46.824Z,25.10
2018-09-18T12:17:15.926Z,25.10
2018-09-18T12:19:46.060Z,25.20
2018-09-18T12:22:14.584Z,25.20
2018-09-18T12:24:43.335Z,25.20
2018-09-18T12:27:11.881Z,25.20
2018-09-18T12:29:40.533Z,25.30
2018-09-18T12:32:09.259Z,25.40
2018-09-18T12:34:38.137Z,25.40
2018-09-18T12:37:06.800Z,25.40
2018-09-18T12:39:35.265Z,25.40
2018-09-18T12:42:03.831Z,25.50
2018-09-18T12:44:32.492Z,25.50
2018-09-18T12:47:00.811Z,25.60
2018-09-18T12:49:29.447Z,25.60
2018-09-18T12:51:58.082Z,25.60
2018-09-18T12:54:28.292Z,25.60
2018-09-18T12:56:57.973Z,25.60
2018-09-18T12:59:26.440Z,25.60
2018-09-18T13:01:54.949Z,25.70
2018-09-18T13:04:23.704Z,25.70
2018-09-18T13:06:53.062Z,25.70
2018-09-18T13:09:21.366Z,25.70
2018-09-18T13:11:50.153Z,25.70
2018-09-18T13:14:18.702Z,25.70
2018-09-18T13:16:47.112Z,25.80
2018-09-18T13:19:15.624Z,25.80
2018-09-18T13:21:44.289Z,25.80
2018-09-18T13:24:12.563Z,25.80
2018-09-18T13:26:40.836Z,25.70
2018-09-18T13:29:09.168Z,25.70
2018-09-18T13:31:37.585Z,25.80
2018-09-18T13:34:05.944Z,25.90
2018-09-18T13:36:36.687Z,25.90
2018-09-18T13:39:06.712Z,25.90
2018-09-18T13:41:35.048Z,26.00
2018-09-18T13:44:03.639Z,26.00
2018-09-18T13:46:32.178Z,26.00
2018-09-18T13:49:01.169Z,26.00
2018-09-18T13:51:42.302Z,26.00
2018-09-18T13:54:10.992Z,26.00
2018-09-18T13:56:47.596Z,26.10
2018-09-18T13:59:16.549Z,26.10
2018-09-18T14:01:46.297Z,26.10
2018-09-18T14:04:15.151Z,26.10
2018-09-18T14:06:43.680Z,26.10
2018-09-18T14:09:12.097Z,26.10
2018-09-18T14:11:40.918Z,26.10
2018-09-18T14:14:09.406Z,26.10
2018-09-18T14:16:37.841Z,26.10
2018-09-18T14:19:06.540Z,26.20
2018-09-18T14:21:35.431Z,26.20
2018-09-18T14:24:04.160Z,26.30
2018-09-18T14:26:32.774Z,26.30
2018-09-18T14:29:00.974Z,26.20
2018-09-18T14:31:29.268Z,26.20
2018-09-18T14:33:57.575Z,26.20
2018-09-18T14:36:25.860Z,26.20
2018-09-18T14:38:54.219Z,26.20
2018-09-18T14:41:22.803Z,26.20
2018-09-18T14:43:52.015Z,26.20
2018-09-18T14:46:20.633Z,26.20
2018-09-18T14:48:48.979Z,26.20
2018-09-18T14:51:17.376Z,26.20
2018-09-18T14:53:45.585Z,26.20
2018-09-18T14:56:13.989Z,26.20
2018-09-18T14:58:42.505Z,26.20
2018-09-18T15:01:11.094Z,26.20
2018-09-18T15:03:43.652Z,26.20
2018-09-18T15:06:18.877Z,26.10
2018-09-18T15:08:47.470Z,26.20
2018-09-18T15:11:15.873Z,26.20
2018-09-18T15:13:44.174Z,26.20
2018-09-18T15:16:13.547Z,26.20
2018-09-18T15:18:42.025Z,26.20
2018-09-18T15:21:11.849Z,26.20
2018-09-18T15:23:40.820Z,26.20
2018-09-18T15:26:09.105Z,26.20
2018-09-18T15:28:37.635Z,26.20
2018-09-18T15:31:06.814Z,26.20
2018-09-18T15:33:35.867Z,26.20
2018-09-18T15:36:04.321Z,26.10
2018-09-18T15:38:32.672Z,26.10
2018-09-18T15:41:01.054Z,26.10
2018-09-18T15:43:29.352Z,26.10
2018-09-18T15:45:57.768Z,26.10
2018-09-18T15:48:26.341Z,26.10
2018-09-18T15:50:54.754Z,26.20
2018-09-18T15:53:23.164Z,26.20
2018-09-18T15:55:51.460Z,26.20
2018-09-18T15:58:19.835Z,26.20
2018-09-18T16:00:48.139Z,26.10
2018-09-18T16:03:16.526Z,26.10
2018-09-18T16:05:45.057Z,26.10
2018-09-18T16:08:13.397Z,26.00
2018-09-18T16:10:42.016Z,26.00
2018-09-18T16:13:10.552Z,26.00
2018-09-18T16:15:39.239Z,25.90
2018-09-18T16:18:07.572Z,25.90
2018-09-18T16:20:36.339Z,25.90
2018-09-18T16:23:04.927Z,25.90
2018-09-18T16:25:33.510Z,25.90
2018-09-18T16:28:02.126Z,25.90
2018-09-18T16:30:30.459Z,25.90
2018-09-18T16:32:58.873Z,25.80
2018-09-18T16:35:27.301Z,25.80
2018-09-18T16:37:56.229Z,25.70
2018-09-18T16:40:24.664Z,25.70
2018-09-18T16:42:52.954Z,25.70
2018-09-18T16:45:21.438Z,25.60
2018-09-18T16:47:50.015Z,25.60
2018-09-18T16:50:18.443Z,25.60
2018-09-18T16:52:46.754Z,25.60
2018-09-18T16:55:15.295Z,25.50
2018-09-18T17:00:23.126Z,25.50
2018-09-18T17:02:52.248Z,25.40
2018-09-18T17:05:21.392Z,25.40
2018-09-18T17:07:49.990Z,25.40
2018-09-18T17:10:18.904Z,25.30
2018-09-18T17:12:47.701Z,25.20
2018-09-18T17:15:16.328Z,25.20
2018-09-18T17:17:46.133Z,25.20
2018-09-18T17:20:14.755Z,25.20
2018-09-18T17:22:43.710Z,25.10
2018-09-18T17:25:12.349Z,25.00
2018-09-18T17:27:40.702Z,25.00
2018-09-18T17:30:09.426Z,25.00
2018-09-18T17:32:38.176Z,24.90
2018-09-18T17:35:08.995Z,24.90
2018-09-18T17:37:38.858Z,24.90
2018-09-18T17:40:08.350Z,24.80
2018-09-18T17:42:37.804Z,24.80
2018-09-18T17:45:07.158Z,24.80
2018-09-18T17:47:40.406Z,24.70
2018-09-18T17:50:10.307Z,24.70
2018-09-18T17:52:38.901Z,24.60
2018-09-18T17:55:08.249Z,24.60
2018-09-18T17:57:37.071Z,24.60
2018-09-18T18:00:07.423Z,24.60
2018-09-18T18:02:36.009Z,24.50
2018-09-18T18:05:06.546Z,24.50
2018-09-18T18:07:35.358Z,24.50
2018-09-18T18:10:05.310Z,24.50
2018-09-18T18:12:34.190Z,24.40
2018-09-18T18:15:02.803Z,24.40
2018-09-18T18:17:34.684Z,24.40
2018-09-18T18:20:03.415Z,24.40
2018-09-18T18:22:32.288Z,24.40
2018-09-18T18:25:00.908Z,24.30
2018-09-18T18:27:29.632Z,24.30
2018-09-18T18:29:58.541Z,24.30
2018-09-18T18:32:27.552Z,24.30
2018-09-18T18:34:56.083Z,24.30
2018-09-18T18:37:24.841Z,24.30
2018-09-18T18:39:53.308Z,24.30
2018-09-18T18:42:21.981Z,24.20
2018-09-18T18:44:50.845Z,24.20
2018-09-18T18:47:20.388Z,24.20
2018-09-18T18:49:49.246Z,24.10
2018-09-18T18:52:18.723Z,24.10
2018-09-18T18:54:47.443Z,24.10
2018-09-18T18:57:16.278Z,24.10
2018-09-18T18:59:45.157Z,24.10
2018-09-18T19:02:15.123Z,24.10
2018-09-18T19:04:44.357Z,24.00
2018-09-18T19:07:13.503Z,24.00
2018-09-18T19:09:42.197Z,24.00
2018-09-18T19:12:11.243Z,24.00
2018-09-18T19:14:39.790Z,23.90
2018-09-18T19:17:09.214Z,23.90
2018-09-18T19:19:38.771Z,23.90
2018-09-18T19:22:07.923Z,23.90
2018-09-18T19:24:38.583Z,23.80
2018-09-18T19:27:08.108Z,23.80
2018-09-18T19:29:37.989Z,23.80
2018-09-18T19:32:10.587Z,23.80
2018-09-18T19:34:40.617Z,23.70
2018-09-18T19:37:09.515Z,23.70
2018-09-18T19:39:39.520Z,23.70
2018-09-18T19:42:10.219Z,23.60
2018-09-18T19:44:39.467Z,23.60
2018-09-18T19:47:09.565Z,23.60
2018-09-18T19:49:40.168Z,23.60
2018-09-18T19:52:09.582Z,23.60
2018-09-18T19:54:38.694Z,23.60
2018-09-18T19:57:07.629Z,23.60
2018-09-18T19:59:37.244Z,23.60
2018-09-18T20:02:07.086Z,23.50
2018-09-18T20:04:36.081Z,23.50
2018-09-18T20:07:05.409Z,23.50
2018-09-18T20:09:34.311Z,23.50
2018-09-18T20:12:03.458Z,23.50
2018-09-18T20:14:32.869Z,23.50
2018-09-18T20:17:01.535Z,23.50
2018-09-18T20:19:30.356Z,23.50
2018-09-18T20:21:59.025Z,23.40
2018-09-18T20:24:27.763Z,23.40
2018-09-18T20:26:56.563Z,23.40
2018-09-18T20:29:25.854Z,23.40
2018-09-18T20:31:54.872Z,23.40
2018-09-18T20:34:23.515Z,23.40
2018-09-18T20:36:52.788Z,23.40
2018-09-18T20:39:21.300Z,23.40
2018-09-18T20:41:49.942Z,23.30
2018-09-18T20:44:18.393Z,23.30
2018-09-18T20:46:47.002Z,23.30
2018-09-18T20:49:16.505Z,23.30
2018-09-18T20:51:44.918Z,23.30
2018-09-18T20:54:13.825Z,23.30
2018-09-18T20:56:42.570Z,23.30
2018-09-18T20:59:12.269Z,23.30
2018-09-18T21:01:40.608Z,23.30
2018-09-18T21:04:09.189Z,23.30
2018-09-18T21:06:38.063Z,23.20
2018-09-18T21:09:08.180Z,23.20
2018-09-18T21:11:36.893Z,23.20
2018-09-18T21:14:05.776Z,23.20
2018-09-18T21:16:34.503Z,23.20
2018-09-18T21:19:02.939Z,23.10
2018-09-18T21:21:31.427Z,23.10
2018-09-18T21:23:59.812Z,23.10
2018-09-18T21:26:28.403Z,23.10
2018-09-18T21:28:57.082Z,23.10
2018-09-18T21:31:25.677Z,23.10
2018-09-18T21:33:53.981Z,23.00
2018-09-18T21:36:22.415Z,23.00
2018-09-18T21:38:50.757Z,23.00
2018-09-18T21:41:19.230Z,23.00
2018-09-18T21:43:47.736Z,22.90
2018-09-18T21:46:16.279Z,22.90
2018-09-18T21:48:44.672Z,22.90
2018-09-18T21:51:13.313Z,22.90
2018-09-18T21:53:41.741Z,22.90
2018-09-18T21:56:10.314Z,22.90
2018-09-18T21:58:38.868Z,22.90
2018-09-18T22:01:07.471Z,22.80
2018-09-18T22:03:36.412Z,22.80
2018-09-18T22:06:05.106Z,22.80
2018-09-18T22:08:34.252Z,22.80
2018-09-18T22:11:02.849Z,22.80
2018-09-18T22:13:31.218Z,22.70
2018-09-18T22:15:59.575Z,22.70
2018-09-18T22:18:27.930Z,22.70
2018-09-18T22:20:56.715Z,22.60
2018-09-18T22:23:25.054Z,22.60
2018-09-18T22:25:53.409Z,22.60
2018-09-18T22:28:21.691Z,22.60
2018-09-18T22:30:50.121Z,22.60
2018-09-18T22:33:18.424Z,22.60
2018-09-18T22:35:46.751Z,22.60
2018-09-18T22:38:15.049Z,22.60
2018-09-18T22:40:43.312Z,22.60
2018-09-18T22:43:11.637Z,22.50
2018-09-18T22:45:39.973Z,22.50
2018-09-18T22:48:08.292Z,22.50
2018-09-18T22:50:36.572Z,22.50
2018-09-18T22:53:05.426Z,22.50
2018-09-18T22:55:33.639Z,22.50
2018-09-18T22:58:01.897Z,22.40
2018-09-18T23:00:30.516Z,22.40
2018-09-18T23:02:58.821Z,22.50
2018-09-18T23:05:27.054Z,22.40
2018-09-18T23:07:55.531Z,22.40
2018-09-18T23:10:24.087Z,22.40
2018-09-18T23:12:52.396Z,22.40
2018-09-18T23:15:20.911Z,22.40
2018-09-18T23:17:49.289Z,22.40
2018-09-18T23:20:17.551Z,22.30
2018-09-18T23:22:45.875Z,22.30
2018-09-18T23:25:14.175Z,22.30
2018-09-18T23:27:42.522Z,22.30
2018-09-18T23:30:10.876Z,22.30
2018-09-18T23:32:39.854Z,22.30
2018-09-18T23:35:08.104Z,22.30
2018-09-18T23:37:36.636Z,22.30
2018-09-18T23:40:04.997Z,22.30
2018-09-18T23:42:33.352Z,22.20
2018-09-18T23:45:01.616Z,22.20
2018-09-18T23:47:30.089Z,22.20
2018-09-18T23:49:58.531Z,22.20
2018-09-18T23:52:26.901Z,22.20
2018-09-18T23:54:55.186Z,22.20
2018-09-18T23:57:23.451Z,22.20
2018-09-18T23:59:51.837Z,22.10
